Time;durP1;ratioP1;P1;durP2;ratioP2;P2;SDS_P1;SDS_P2;PMS_P1;PMS_P2;Temp;Humidity;BMP_temperature;BMP_pressure;BME280_temperature;BME280_humidity;BME280_pressure;Samples;Min_cycle;Max_cycle;Signal;HPM_P1;HPM_P2
2023/07/12 00:00:47;;;;;;;7.50;4.10;;;;;;;;;;5052513;28;20040;-63
2023/07/12 00:03:14;;;;;;;7.03;4.00;;;;;;;;;;5051527;28;20033;-64
2023/07/12 00:05:41;;;;;;;6.20;4.40;;;;;;;;;;5051379;28;20033;-63
2023/07/12 00:08:15;;;;;;;6.95;4.25;;;;;;;;;;5053259;28;20052;-63
2023/07/12 00:10:40;;;;;;;7.50;4.53;;;;;;;;;;5053164;28;20120;-64
2023/07/12 00:13:06;;;;;;;6.07;4.45;;;;;;;;;;5063015;28;20088;-64
2023/07/12 00:15:33;;;;;;;8.57;5.05;;;;;;;;;;5056009;28;20444;-63
2023/07/12 00:17:59;;;;;;;7.05;5.40;;;;;;;;;;5034679;28;20040;-64
2023/07/12 00:20:35;;;;;;;6.82;4.88;;;;;;;;;;5034044;28;20049;-64
2023/07/12 00:23:01;;;;;;;8.52;4.78;;;;;;;;;;5031921;28;20098;-64
2023/07/12 00:25:32;;;;;;;8.45;4.90;;;;;;;;;;5047489;28;20036;-64
2023/07/12 00:27:57;;;;;;;;;;;;;;;;;;5050626;28;20064;-64
2023/07/12 00:30:27;;;;;;;9.05;4.95;;;;;;;;;;5051400;28;19915;-64
2023/07/12 00:32:54;;;;;;;6.82;4.68;;;;;;;;;;5050651;28;20087;-64
2023/07/12 00:35:25;;;;;;;9.38;4.80;;;;;;;;;;5052183;28;20064;-64
2023/07/12 00:37:52;;;;;;;8.93;4.68;;;;;;;;;;5051819;28;20029;-64
2023/07/12 00:40:45;;;;;;;10.27;4.82;;;;;;;;;;5052295;28;20036;-64
2023/07/12 00:43:49;;;;;;;9.63;4.38;;;;;;;;;;5032977;28;20059;-63
2023/07/12 00:46:25;;;;;;;7.65;4.32;;;;;;;;;;5029811;28;20037;-64
2023/07/12 00:48:51;;;;;;;7.47;4.28;;;;;;;;;;5029394;28;20397;-64
2023/07/12 00:51:34;;;;;;;7.80;4.43;;;;;;;;;;5030104;28;20045;-64
2023/07/12 00:54:00;;;;;;;8.57;4.30;;;;;;;;;;5029584;28;20039;-64
2023/07/12 00:56:26;;;;;;;10.25;4.20;;;;;;;;;;5030160;28;20031;-64
2023/07/12 00:59:04;;;;;;;8.05;4.40;;;;;;;;;;5029182;28;20064;-64
2023/07/12 01:01:32;;;;;;;7.38;4.15;;;;;;;;;;5029956;28;20030;-64
2023/07/12 01:03:58;;;;;;;7.38;3.80;;;;;;;;;;5037431;28;20109;-64
2023/07/12 01:06:24;;;;;;;8.05;3.83;;;;;;;;;;5030188;28;20124;-64
2023/07/12 01:08:50;;;;;;;6.03;3.67;;;;;;;;;;5029060;28;20136;-65
2023/07/12 01:11:17;;;;;;;5.63;3.40;;;;;;;;;;5028886;28;20127;-63
2023/07/12 01:13:45;;;;;;;5.90;3.17;;;;;;;;;;5028911;28;20129;-65
2023/07/12 01:16:17;;;;;;;8.63;2.30;;;;;;;;;;5030383;28;20115;-64
2023/07/12 01:18:42;;;;;;;4.00;2.30;;;;;;;;;;5051083;28;20473;-65
2023/07/12 01:21:12;;;;;;;4.53;2.10;;;;;;;;;;5050836;28;20040;-65
2023/07/12 01:23:38;;;;;;;3.03;2.00;;;;;;;;;;5051527;28;20036;-64
2023/07/12 01:26:21;;;;;;;3.53;1.83;;;;;;;;;;5051616;28;20032;-64
2023/07/12 01:28:50;;;;;;;2.72;1.90;;;;;;;;;;5044993;28;20088;-65
2023/07/12 01:31:16;;;;;;;2.70;2.00;;;;;;;;;;5034118;28;20040;-65
2023/07/12 01:33:42;;;;;;;4.03;2.00;;;;;;;;;;5030357;28;20030;-65
2023/07/12 01:36:07;;;;;;;3.53;2.20;;;;;;;;;;5034304;28;20028;-65
2023/07/12 01:38:33;;;;;;;3.95;2.13;;;;;;;;;;5034928;28;20476;-64
2023/07/12 01:40:58;;;;;;;3.45;2.25;;;;;;;;;;5034357;28;20032;-65
2023/07/12 01:43:23;;;;;;;4.82;2.22;;;;;;;;;;5049213;28;20119;-65
2023/07/12 01:45:49;;;;;;;3.47;2.22;;;;;;;;;;5036631;28;20057;-63
2023/07/12 01:48:14;;;;;;;3.35;2.25;;;;;;;;;;5049527;28;20112;-63
2023/07/12 01:50:41;;;;;;;3.88;2.40;;;;;;;;;;5042008;28;20128;-65
2023/07/12 01:53:07;;;;;;;4.20;2.10;;;;;;;;;;5050509;28;20047;-64
2023/07/12 01:55:33;;;;;;;3.97;1.88;;;;;;;;;;5034995;28;20037;-64
2023/07/12 01:57:58;;;;;;;5.30;1.73;;;;;;;;;;5035631;28;20224;-64
2023/07/12 02:00:23;;;;;;;3.63;1.80;;;;;;;;;;5042075;28;20029;-65
2023/07/12 02:02:49;;;;;;;3.60;1.80;;;;;;;;;;5048338;28;20033;-66
2023/07/12 02:05:14;;;;;;;2.60;1.73;;;;;;;;;;5057192;28;20086;-64
2023/07/12 02:07:40;;;;;;;4.28;1.60;;;;;;;;;;5062292;28;20381;-66
2023/07/12 02:10:17;;;;;;;4.32;1.73;;;;;;;;;;5070737;28;20040;-65
2023/07/12 02:12:43;;;;;;;3.63;1.70;;;;;;;;;;5045799;28;20021;-64
2023/07/12 02:15:11;;;;;;;2.05;1.50;;;;;;;;;;5030049;28;20035;-64
2023/07/12 02:17:37;;;;;;;4.97;1.65;;;;;;;;;;5031524;28;20116;-64
2023/07/12 02:20:04;;;;;;;4.30;1.60;;;;;;;;;;5030647;28;20026;-64
2023/07/12 02:22:30;;;;;;;2.70;1.70;;;;;;;;;;5041479;28;20029;-65
2023/07/12 02:24:56;;;;;;;3.45;1.58;;;;;;;;;;5049318;28;20187;-64
2023/07/12 02:27:22;;;;;;;3.63;1.60;;;;;;;;;;5051197;28;20533;-64
2023/07/12 02:29:47;;;;;;;3.75;1.60;;;;;;;;;;5035271;28;20060;-65
2023/07/12 02:32:13;;;;;;;3.60;1.60;;;;;;;;;;5035899;28;20052;-65
2023/07/12 02:34:38;;;;;;;4.38;1.73;;;;;;;;;;5045268;28;20390;-65
2023/07/12 02:37:03;;;;;;;2.20;1.55;;;;;;;;;;5033191;28;20052;-62
2023/07/12 02:39:29;;;;;;;3.88;1.90;;;;;;;;;;5045887;28;20036;-64
2023/07/12 02:41:54;;;;;;;2.30;1.55;;;;;;;;;;5048694;28;20029;-65
2023/07/12 02:44:21;;;;;;;3.15;1.63;;;;;;;;;;5039448;28;20125;-63
2023/07/12 02:46:46;;;;;;;3.67;1.60;;;;;;;;;;5036137;28;20033;-65
2023/07/12 02:49:13;;;;;;;3.22;1.63;;;;;;;;;;5041494;28;20362;-64
2023/07/12 02:51:38;;;;;;;3.78;1.83;;;;;;;;;;5050447;28;20111;-65
2023/07/12 02:54:04;;;;;;;3.22;1.73;;;;;;;;;;5050551;28;20107;-64
2023/07/12 02:56:29;;;;;;;8.98;1.92;;;;;;;;;;5036146;28;20029;-68
2023/07/12 02:58:54;;;;;;;4.93;1.90;;;;;;;;;;5041691;28;20020;-66
2023/07/12 03:01:20;;;;;;;7.15;2.15;;;;;;;;;;5043691;28;20034;-65
2023/07/12 03:03:45;;;;;;;5.70;2.33;;;;;;;;;;5057357;28;20029;-64
2023/07/12 03:06:11;;;;;;;12.40;2.40;;;;;;;;;;5042121;28;20045;-63
2023/07/12 03:08:37;;;;;;;8.90;2.47;;;;;;;;;;5034292;28;20116;-63
2023/07/12 03:11:07;;;;;;;6.35;2.50;;;;;;;;;;5049206;28;20124;-63
2023/07/12 03:13:33;;;;;;;7.55;2.75;;;;;;;;;;5032750;28;20443;-63
2023/07/12 03:15:59;;;;;;;8.88;3.00;;;;;;;;;;5059365;28;20090;-63
2023/07/12 03:18:25;;;;;;;7.07;3.00;;;;;;;;;;5040767;28;20438;-63
2023/07/12 03:20:50;;;;;;;8.00;3.10;;;;;;;;;;5045478;28;20079;-62
2023/07/12 03:23:16;;;;;;;6.65;2.80;;;;;;;;;;5043185;28;20064;-62
2023/07/12 03:25:46;;;;;;;9.93;2.80;;;;;;;;;;5049895;28;20045;-66
2023/07/12 03:28:12;;;;;;;8.25;3.20;;;;;;;;;;5052197;28;20124;-59
2023/07/12 03:30:37;;;;;;;9.38;3.10;;;;;;;;;;5044990;28;20128;-60
2023/07/12 03:33:03;;;;;;;5.95;3.00;;;;;;;;;;5053321;28;20037;-74
2023/07/12 03:35:28;;;;;;;16.05;3.53;;;;;;;;;;5051200;28;20083;-64
2023/07/12 03:37:53;;;;;;;8.20;3.00;;;;;;;;;;5059755;28;20043;-64
2023/07/12 03:40:19;;;;;;;7.28;3.00;;;;;;;;;;5049637;28;20358;-63
2023/07/12 03:42:44;;;;;;;9.63;3.65;;;;;;;;;;5069434;28;20045;-63
2023/07/12 03:45:11;;;;;;;5.63;3.10;;;;;;;;;;5033334;28;20045;-63
2023/07/12 03:47:37;;;;;;;7.53;3.15;;;;;;;;;;5033009;28;20045;-63
2023/07/12 03:50:03;;;;;;;11.32;3.67;;;;;;;;;;5052421;28;20079;-63
2023/07/12 03:52:28;;;;;;;8.75;3.47;;;;;;;;;;5053966;28;20389;-63
2023/07/12 03:54:53;;;;;;;7.43;3.38;;;;;;;;;;5054839;28;20039;-63
2023/07/12 03:57:19;;;;;;;8.35;3.35;;;;;;;;;;5056989;28;20036;-63
2023/07/12 03:59:44;;;;;;;7.20;3.30;;;;;;;;;;5053984;28;20115;-62
2023/07/12 04:02:09;;;;;;;9.10;3.22;;;;;;;;;;5035039;28;20428;-63
2023/07/12 04:04:35;;;;;;;7.80;3.20;;;;;;;;;;5033777;28;20387;-64
2023/07/12 04:07:02;;;;;;;8.02;3.53;;;;;;;;;;5033365;28;20029;-63
2023/07/12 04:09:28;;;;;;;8.45;3.20;;;;;;;;;;5033938;28;20105;-62
2023/07/12 04:11:53;;;;;;;6.68;2.78;;;;;;;;;;5033238;28;20105;-63
2023/07/12 04:14:19;;;;;;;5.80;3.17;;;;;;;;;;5033787;28;20159;-64
2023/07/12 04:16:46;;;;;;;6.38;3.30;;;;;;;;;;5045539;28;20036;-63
2023/07/12 04:19:14;;;;;;;6.55;3.08;;;;;;;;;;5051689;28;20381;-63
2023/07/12 04:21:39;;;;;;;5.25;3.25;;;;;;;;;;5053185;28;20033;-62
2023/07/12 04:24:05;;;;;;;10.43;3.75;;;;;;;;;;5052938;28;20029;-62
2023/07/12 04:26:31;;;;;;;10.73;3.33;;;;;;;;;;5053587;28;20025;-63
2023/07/12 04:28:56;;;;;;;9.93;3.90;;;;;;;;;;5053004;28;20496;-63
2023/07/12 04:31:22;;;;;;;10.27;3.72;;;;;;;;;;5052133;28;20040;-63
2023/07/12 04:33:48;;;;;;;9.35;4.22;;;;;;;;;;5052657;28;20107;-63
2023/07/12 04:36:16;;;;;;;11.30;4.22;;;;;;;;;;5053259;28;20465;-63
2023/07/12 04:38:41;;;;;;;13.07;4.38;;;;;;;;;;5053463;28;20043;-64
2023/07/12 04:41:07;;;;;;;9.48;4.18;;;;;;;;;;5052792;28;20925;-64
2023/07/12 04:43:32;;;;;;;10.68;4.30;;;;;;;;;;5050714;28;20045;-63
2023/07/12 04:45:58;;;;;;;12.38;4.80;;;;;;;;;;5052349;28;20025;-63
2023/07/12 04:48:24;;;;;;;10.73;4.75;;;;;;;;;;5052942;28;20362;-64
2023/07/12 04:50:54;;;;;;;8.73;4.30;;;;;;;;;;5052619;28;20078;-63
2023/07/12 04:53:21;;;;;;;6.72;3.55;;;;;;;;;;5053054;28;20032;-63
2023/07/12 04:55:50;;;;;;;5.07;2.90;;;;;;;;;;5053179;28;20033;-63
2023/07/12 04:58:16;;;;;;;6.40;3.08;;;;;;;;;;5051934;28;20123;-63
2023/07/12 05:00:43;;;;;;;6.22;3.25;;;;;;;;;;5053140;28;20111;-63
2023/07/12 05:03:08;;;;;;;7.03;3.20;;;;;;;;;;5052078;28;20394;-63
2023/07/12 05:05:34;;;;;;;6.78;3.10;;;;;;;;;;5052690;28;20060;-63
2023/07/12 05:07:59;;;;;;;6.65;3.20;;;;;;;;;;5052291;28;20527;-63
2023/07/12 05:10:25;;;;;;;8.13;3.70;;;;;;;;;;5052833;28;20040;-63
2023/07/12 05:12:50;;;;;;;6.20;3.22;;;;;;;;;;5050148;28;20033;-63
2023/07/12 05:15:16;;;;;;;7.15;3.83;;;;;;;;;;5052485;28;20068;-63
2023/07/12 05:17:42;;;;;;;7.20;3.50;;;;;;;;;;5052458;28;20029;-63
2023/07/12 05:20:11;;;;;;;8.25;3.47;;;;;;;;;;5051733;28;20069;-63
2023/07/12 05:22:36;;;;;;;7.50;3.10;;;;;;;;;;5052462;28;20033;-64
2023/07/12 05:25:04;;;;;;;7.72;2.85;;;;;;;;;;5051859;28;20458;-63
2023/07/12 05:27:30;;;;;;;5.82;2.75;;;;;;;;;;5050977;28;20060;-63
2023/07/12 05:29:55;;;;;;;5.03;2.75;;;;;;;;;;5051880;28;20061;-64
2023/07/12 05:32:24;;;;;;;4.47;2.45;;;;;;;;;;5052191;28;20078;-64
2023/07/12 05:34:49;;;;;;;4.78;2.30;;;;;;;;;;5052330;28;20116;-64
2023/07/12 05:37:16;;;;;;;5.07;2.30;;;;;;;;;;5051957;28;20063;-64
2023/07/12 05:39:41;;;;;;;4.30;1.90;;;;;;;;;;5034746;28;20033;-64
2023/07/12 05:42:08;;;;;;;5.40;2.13;;;;;;;;;;5030376;28;20371;-63
2023/07/12 05:44:33;;;;;;;4.57;2.13;;;;;;;;;;5032047;28;20087;-64
2023/07/12 05:46:59;;;;;;;5.22;2.42;;;;;;;;;;5033878;28;20033;-64
2023/07/12 05:49:24;;;;;;;6.78;2.40;;;;;;;;;;5032438;28;20387;-64
2023/07/12 05:51:50;;;;;;;3.70;2.20;;;;;;;;;;5031413;28;20037;-66
2023/07/12 05:54:15;;;;;;;4.25;2.13;;;;;;;;;;5045930;28;20033;-64
2023/07/12 05:56:41;;;;;;;4.22;2.40;;;;;;;;;;5052343;28;20462;-65
2023/07/12 05:59:06;;;;;;;3.65;2.10;;;;;;;;;;5051834;28;20029;-66
2023/07/12 06:01:32;;;;;;;6.63;2.50;;;;;;;;;;5052217;28;20025;-65
2023/07/12 06:03:57;;;;;;;5.80;2.58;;;;;;;;;;5051736;28;20033;-65
2023/07/12 06:06:23;;;;;;;5.28;2.50;;;;;;;;;;5052071;28;20386;-66
2023/07/12 06:08:48;;;;;;;4.75;2.63;;;;;;;;;;5049821;28;20474;-65
2023/07/12 06:11:14;;;;;;;6.03;2.58;;;;;;;;;;5051485;28;20028;-66
2023/07/12 06:13:39;;;;;;;4.50;2.67;;;;;;;;;;5051603;28;20155;-66
2023/07/12 06:16:05;;;;;;;5.05;2.67;;;;;;;;;;5051483;28;20063;-66
2023/07/12 06:18:31;;;;;;;5.57;2.80;;;;;;;;;;5051299;28;20032;-66
2023/07/12 06:20:59;;;;;;;5.95;2.83;;;;;;;;;;5051092;28;20448;-66
2023/07/12 06:23:25;;;;;;;4.82;2.67;;;;;;;;;;5051600;28;20362;-67
2023/07/12 06:25:51;;;;;;;8.52;3.35;;;;;;;;;;5051877;28;20112;-65
2023/07/12 06:28:16;;;;;;;6.47;3.55;;;;;;;;;;5054315;28;20113;-68
2023/07/12 06:30:42;;;;;;;7.82;4.47;;;;;;;;;;5055899;28;20381;-64
2023/07/12 06:33:07;;;;;;;7.70;4.07;;;;;;;;;;5053998;28;20029;-67
2023/07/12 06:35:32;;;;;;;8.73;4.88;;;;;;;;;;5055693;28;20032;-64
2023/07/12 06:37:58;;;;;;;7.10;4.68;;;;;;;;;;5054788;28;20048;-64
2023/07/12 06:40:23;;;;;;;10.27;4.90;;;;;;;;;;5055360;28;20033;-66
2023/07/12 06:42:49;;;;;;;8.10;5.40;;;;;;;;;;5054096;28;20132;-66
2023/07/12 06:45:14;;;;;;;8.00;4.95;;;;;;;;;;5055135;28;20204;-65
2023/07/12 06:47:40;;;;;;;10.77;5.18;;;;;;;;;;5054318;28;20025;-64
2023/07/12 06:50:05;;;;;;;9.77;4.88;;;;;;;;;;5053552;28;20032;-66
2023/07/12 06:52:31;;;;;;;8.50;3.92;;;;;;;;;;5055348;28;20025;-65
2023/07/12 06:54:56;;;;;;;6.60;3.75;;;;;;;;;;5054639;28;20112;-64
2023/07/12 06:57:22;;;;;;;10.13;4.13;;;;;;;;;;5055364;28;20108;-64
2023/07/12 06:59:47;;;;;;;8.07;4.10;;;;;;;;;;5055291;28;20057;-63
2023/07/12 07:02:14;;;;;;;9.30;4.68;;;;;;;;;;5054597;28;20420;-63
2023/07/12 07:04:39;;;;;;;8.38;4.40;;;;;;;;;;5053729;28;20095;-63
2023/07/12 07:07:05;;;;;;;7.38;4.43;;;;;;;;;;5054219;28;20025;-63
2023/07/12 07:09:33;;;;;;;11.52;5.20;;;;;;;;;;5055079;28;20147;-63
2023/07/12 07:11:59;;;;;;;8.93;5.53;;;;;;;;;;5054187;28;20025;-64
2023/07/12 07:14:25;;;;;;;11.25;5.00;;;;;;;;;;5053566;28;20446;-64
2023/07/12 07:16:50;;;;;;;12.95;5.55;;;;;;;;;;5054661;28;20477;-63
2023/07/12 07:19:15;;;;;;;8.77;5.22;;;;;;;;;;5052373;28;20029;-63
2023/07/12 07:21:41;;;;;;;7.38;5.00;;;;;;;;;;5054526;28;20033;-62
2023/07/12 07:24:07;;;;;;;7.22;4.25;;;;;;;;;;5054056;28;20041;-63
2023/07/12 07:26:32;;;;;;;8.25;3.92;;;;;;;;;;5054434;28;20040;-62
2023/07/12 07:28:58;;;;;;;8.15;3.92;;;;;;;;;;5052444;28;20025;-62
2023/07/12 07:31:23;;;;;;;7.30;3.65;;;;;;;;;;5049732;28;20029;-62
2023/07/12 07:33:49;;;;;;;11.00;3.63;;;;;;;;;;5038655;28;20061;-62
2023/07/12 07:36:15;;;;;;;9.05;3.42;;;;;;;;;;5035502;28;20032;-62
2023/07/12 07:38:40;;;;;;;6.95;3.60;;;;;;;;;;5035543;28;20049;-62
2023/07/12 07:41:09;;;;;;;7.28;3.58;;;;;;;;;;5033922;28;20459;-62
2023/07/12 07:43:44;;;;;;;7.75;3.50;;;;;;;;;;5034303;28;20046;-63
2023/07/12 07:46:11;;;;;;;7.47;3.60;;;;;;;;;;5033846;28;20037;-62
2023/07/12 07:48:37;;;;;;;9.15;4.00;;;;;;;;;;5039238;28;20029;-62
2023/07/12 07:51:03;;;;;;;6.90;3.75;;;;;;;;;;5033496;28;20156;-62
2023/07/12 07:53:28;;;;;;;6.78;3.40;;;;;;;;;;5033896;28;20377;-62
2023/07/12 07:55:54;;;;;;;8.82;3.20;;;;;;;;;;5034030;28;20530;-62
2023/07/12 07:58:21;;;;;;;7.10;3.15;;;;;;;;;;5033210;28;20030;-62
2023/07/12 08:00:47;;;;;;;6.30;3.60;;;;;;;;;;5033735;28;20061;-63
2023/07/12 08:03:12;;;;;;;5.57;3.70;;;;;;;;;;5033278;28;20045;-63
2023/07/12 08:05:38;;;;;;;7.10;3.58;;;;;;;;;;5033567;28;20032;-63
2023/07/12 08:08:04;;;;;;;5.28;3.10;;;;;;;;;;5033129;28;20128;-63
2023/07/12 08:10:30;;;;;;;6.53;3.17;;;;;;;;;;5043570;28;20056;-63
2023/07/12 08:12:56;;;;;;;3.92;2.50;;;;;;;;;;5053464;28;20466;-62
2023/07/12 08:15:22;;;;;;;6.45;2.53;;;;;;;;;;5053075;28;20036;-63
2023/07/12 08:17:48;;;;;;;3.85;2.40;;;;;;;;;;5053702;28;20462;-63
2023/07/12 08:20:13;;;;;;;4.50;2.38;;;;;;;;;;5053076;28;20131;-63
2023/07/12 08:22:39;;;;;;;3.70;2.22;;;;;;;;;;5053667;28;20159;-64
2023/07/12 08:25:05;;;;;;;5.88;2.40;;;;;;;;;;5046240;28;20087;-63
2023/07/12 08:27:31;;;;;;;5.53;2.50;;;;;;;;;;5037542;28;20114;-63
2023/07/12 08:30:00;;;;;;;4.60;2.13;;;;;;;;;;5033503;28;20084;-64
2023/07/12 08:32:27;;;;;;;4.68;2.20;;;;;;;;;;5032801;28;20091;-64
2023/07/12 08:34:57;;;;;;;5.82;2.08;;;;;;;;;;5033318;28;20029;-64
2023/07/12 08:37:23;;;;;;;4.78;2.15;;;;;;;;;;5032910;28;20117;-64
2023/07/12 08:39:49;;;;;;;4.32;2.35;;;;;;;;;;5033411;28;20026;-64
2023/07/12 08:42:19;;;;;;;3.72;2.20;;;;;;;;;;5036407;28;20441;-63
2023/07/12 08:44:45;;;;;;;4.72;2.70;;;;;;;;;;5053572;28;20033;-64
2023/07/12 08:47:19;;;;;;;5.47;2.60;;;;;;;;;;5051113;28;20047;-64
2023/07/12 08:49:44;;;;;;;7.35;2.90;;;;;;;;;;5052539;28;20469;-64
2023/07/12 08:52:17;;;;;;;6.38;2.30;;;;;;;;;;5052508;28;20028;-65
2023/07/12 08:54:43;;;;;;;6.03;2.50;;;;;;;;;;5049474;28;20567;-64
2023/07/12 08:57:19;;;;;;;4.85;2.42;;;;;;;;;;5051075;28;20037;-64
2023/07/12 09:00:07;;;;;;;2.88;1.90;;;;;;;;;;5053137;28;20043;-64
2023/07/12 09:02:34;;;;;;;7.03;2.55;;;;;;;;;;5053060;28;20276;-64
2023/07/12 09:05:19;;;;;;;5.53;2.28;;;;;;;;;;5052684;28;20029;-64
2023/07/12 09:08:08;;;;;;;5.63;2.22;;;;;;;;;;5052533;28;20029;-64
2023/07/12 09:10:56;;;;;;;5.22;2.38;;;;;;;;;;5038360;28;20033;-63
2023/07/12 09:13:32;;;;;;;10.18;2.70;;;;;;;;;;5031138;28;20497;-63
2023/07/12 09:15:57;;;;;;;4.88;2.13;;;;;;;;;;5030968;28;20029;-64
2023/07/12 09:18:29;;;;;;;8.30;2.28;;;;;;;;;;5031305;28;20537;-63
2023/07/12 09:20:56;;;;;;;4.72;2.10;;;;;;;;;;5032635;28;20108;-63
2023/07/12 09:23:22;;;;;;;5.93;2.50;;;;;;;;;;5032022;28;20038;-63
2023/07/12 09:25:54;;;;;;;5.60;2.15;;;;;;;;;;5048060;28;20033;-64
2023/07/12 09:28:20;;;;;;;4.10;2.00;;;;;;;;;;5052598;28;20025;-63
2023/07/12 09:30:45;;;;;;;7.03;2.60;;;;;;;;;;5052508;28;20083;-64
2023/07/12 09:33:25;;;;;;;7.10;2.55;;;;;;;;;;5051477;28;20064;-64
2023/07/12 09:35:51;;;;;;;5.38;2.30;;;;;;;;;;5051929;28;20359;-63
2023/07/12 09:38:22;;;;;;;5.95;2.67;;;;;;;;;;5051658;28;20025;-63
2023/07/12 09:40:50;;;;;;;6.07;2.50;;;;;;;;;;5037709;28;20072;-63
2023/07/12 09:43:24;;;;;;;6.55;2.42;;;;;;;;;;5036395;28;20040;-64
2023/07/12 09:45:54;;;;;;;8.40;2.30;;;;;;;;;;5051004;28;20194;-63
2023/07/12 09:48:38;;;;;;;4.20;1.90;;;;;;;;;;5052034;28;20040;-63
2023/07/12 09:51:22;;;;;;;5.28;1.80;;;;;;;;;;5052272;28;20366;-64
2023/07/12 09:53:53;;;;;;;3.78;1.90;;;;;;;;;;5052115;28;20025;-65
2023/07/12 09:56:38;;;;;;;;;;;;;;;;;;5051980;28;20500;-63
2023/07/12 09:59:18;;;;;;;4.97;2.10;;;;;;;;;;5037195;28;19909;-64
2023/07/12 10:01:54;;;;;;;3.97;1.87;;;;;;;;;;5034061;28;20037;-63
2023/07/12 10:04:34;;;;;;;4.82;2.63;;;;;;;;;;5035834;28;20495;-64
2023/07/12 10:07:23;;;;;;;6.05;2.40;;;;;;;;;;5036264;28;20025;-64
2023/07/12 10:09:50;;;;;;;4.93;2.00;;;;;;;;;;5032056;28;20045;-63
2023/07/12 10:12:40;;;;;;;5.78;2.20;;;;;;;;;;5034655;28;20072;-63
2023/07/12 10:15:11;;;;;;;6.20;2.20;;;;;;;;;;5056042;28;20065;-63
2023/07/12 10:17:39;;;;;;;10.20;2.17;;;;;;;;;;5055997;28;20075;-64
2023/07/12 10:20:12;;;;;;;5.18;2.13;;;;;;;;;;5055988;28;20029;-63
2023/07/12 10:22:41;;;;;;;6.20;2.42;;;;;;;;;;5054614;28;20496;-63
2023/07/12 10:25:30;;;;;;;5.30;2.20;;;;;;;;;;5055875;28;20044;-64
2023/07/12 10:28:14;;;;;;;4.20;2.03;;;;;;;;;;5054391;28;20025;-63
2023/07/12 10:30:41;;;;;;;3.42;1.90;;;;;;;;;;5055816;28;20043;-64
2023/07/12 10:33:23;;;;;;;6.03;2.30;;;;;;;;;;5055632;28;20036;-63
2023/07/12 10:35:56;;;;;;;7.10;2.65;;;;;;;;;;5056024;28;20041;-64
2023/07/12 10:38:22;;;;;;;3.97;2.05;;;;;;;;;;5052006;28;20032;-64
2023/07/12 10:41:08;;;;;;;5.63;2.20;;;;;;;;;;5050517;28;20060;-63
2023/07/12 10:43:43;;;;;;;6.07;2.38;;;;;;;;;;5054963;28;20056;-64
2023/07/12 10:46:15;;;;;;;5.05;2.13;;;;;;;;;;5055310;28;20025;-63
2023/07/12 10:48:48;;;;;;;4.53;2.03;;;;;;;;;;5055154;28;20025;-64
2023/07/12 10:51:36;;;;;;;4.97;1.95;;;;;;;;;;5054898;28;20078;-64
2023/07/12 10:54:03;;;;;;;5.32;2.20;;;;;;;;;;5055285;28;20078;-63
2023/07/12 10:56:34;;;;;;;4.65;2.03;;;;;;;;;;5040348;28;20432;-62
2023/07/12 10:59:01;;;;;;;4.72;1.77;;;;;;;;;;5035344;28;20032;-63
2023/07/12 11:01:48;;;;;;;2.55;1.67;;;;;;;;;;5034533;28;20029;-63
2023/07/12 11:04:43;;;;;;;3.50;1.80;;;;;;;;;;5034676;28;20049;-64
2023/07/12 11:07:14;;;;;;;4.75;1.70;;;;;;;;;;5029899;28;20080;-63
2023/07/12 11:09:43;;;;;;;4.05;1.83;;;;;;;;;;5034803;28;20068;-63
2023/07/12 11:12:09;;;;;;;4.15;1.80;;;;;;;;;;5034546;28;20100;-63
2023/07/12 11:14:38;;;;;;;4.88;1.98;;;;;;;;;;5033800;28;20029;-63
2023/07/12 11:17:06;;;;;;;5.78;2.00;;;;;;;;;;5035038;28;20061;-63
2023/07/12 11:19:36;;;;;;;4.55;1.90;;;;;;;;;;5038910;28;20029;-63
2023/07/12 11:22:10;;;;;;;4.78;2.70;;;;;;;;;;5056196;28;20056;-63
2023/07/12 11:24:38;;;;;;;7.57;2.10;;;;;;;;;;5054431;28;20040;-63
2023/07/12 11:27:09;;;;;;;3.90;2.00;;;;;;;;;;5054587;28;20043;-63
2023/07/12 11:29:44;;;;;;;5.20;2.08;;;;;;;;;;5054156;28;20477;-63
2023/07/12 11:32:22;;;;;;;4.85;2.10;;;;;;;;;;5054757;28;20024;-63
2023/07/12 11:34:48;;;;;;;3.03;1.90;;;;;;;;;;5042132;28;20041;-63
2023/07/12 11:37:30;;;;;;;4.88;2.00;;;;;;;;;;5032494;28;20486;-64
2023/07/12 11:39:55;;;;;;;7.03;2.20;;;;;;;;;;5034403;28;20482;-63
2023/07/12 11:42:27;;;;;;;6.43;2.40;;;;;;;;;;5033803;28;20068;-64
2023/07/12 11:45:03;;;;;;;7.10;1.98;;;;;;;;;;5034511;28;20615;-64
2023/07/12 11:47:30;;;;;;;5.22;1.90;;;;;;;;;;5033789;28;20029;-63
2023/07/12 11:49:57;;;;;;;4.43;1.60;;;;;;;;;;5033993;28;20033;-63
2023/07/12 11:52:25;;;;;;;3.92;1.80;;;;;;;;;;5033211;28;20402;-64
2023/07/12 11:54:53;;;;;;;3.33;1.70;;;;;;;;;;5034312;28;20109;-63
2023/07/12 11:57:19;;;;;;;4.28;2.00;;;;;;;;;;5033107;28;20083;-63
2023/07/12 11:59:47;;;;;;;4.40;1.73;;;;;;;;;;5034231;28;20031;-64
2023/07/12 12:02:18;;;;;;;4.75;1.77;;;;;;;;;;5033983;28;20060;-63
2023/07/12 12:04:48;;;;;;;5.95;1.80;;;;;;;;;;5048871;28;20036;-63
2023/07/12 12:07:27;;;;;;;;;;;;;;;;;;5044815;28;20036;-63
2023/07/12 12:09:54;;;;;;;5.00;1.90;;;;;;;;;;5033921;28;19913;-63
2023/07/12 12:12:26;;;;;;;4.13;1.73;;;;;;;;;;5032799;28;20423;-64
2023/07/12 12:14:52;;;;;;;4.45;1.70;;;;;;;;;;5033969;28;20037;-64
2023/07/12 12:17:29;;;;;;;4.95;1.77;;;;;;;;;;5032898;28;20060;-64
2023/07/12 12:20:15;;;;;;;5.35;1.60;;;;;;;;;;5033980;28;20466;-64
2023/07/12 12:22:43;;;;;;;7.65;1.80;;;;;;;;;;5033241;28;20473;-64
2023/07/12 12:25:20;;;;;;;6.00;1.95;;;;;;;;;;5032527;28;20037;-64
2023/07/12 12:27:46;;;;;;;4.50;2.10;;;;;;;;;;5033362;28;20488;-64
2023/07/12 12:30:31;;;;;;;3.35;1.70;;;;;;;;;;5041165;28;20100;-65
2023/07/12 12:33:21;;;;;;;3.63;1.60;;;;;;;;;;5052295;28;20037;-64
2023/07/12 12:35:47;;;;;;;;;;;;;;;;;;5053844;28;20466;-64
2023/07/12 12:38:26;;;;;;;3.70;2.00;;;;;;;;;;5053267;28;20059;-64
2023/07/12 12:40:59;;;;;;;3.63;1.70;;;;;;;;;;5053735;28;20025;-64
2023/07/12 12:43:25;;;;;;;3.20;1.80;;;;;;;;;;5052311;28;20045;-64
2023/07/12 12:45:50;;;;;;;5.47;1.98;;;;;;;;;;5050822;28;20043;-64
2023/07/12 12:48:16;;;;;;;3.72;1.77;;;;;;;;;;5050926;28;20025;-64
2023/07/12 12:50:42;;;;;;;4.63;1.67;;;;;;;;;;5053426;28;20148;-65
2023/07/12 12:53:11;;;;;;;6.30;1.80;;;;;;;;;;5052784;28;20483;-65
2023/07/12 12:55:37;;;;;;;3.33;1.65;;;;;;;;;;5052187;28;20032;-64
2023/07/12 12:58:03;;;;;;;3.95;1.55;;;;;;;;;;5052863;28;20566;-64
2023/07/12 13:00:29;;;;;;;3.28;1.60;;;;;;;;;;5052084;28;20033;-64
2023/07/12 13:02:55;;;;;;;3.55;1.60;;;;;;;;;;5032830;28;20116;-64
2023/07/12 13:05:25;;;;;;;4.57;1.77;;;;;;;;;;5032404;28;20116;-63
2023/07/12 13:07:51;;;;;;;4.07;1.63;;;;;;;;;;5032476;28;20053;-65
2023/07/12 13:10:20;;;;;;;5.03;1.80;;;;;;;;;;5032739;28;20106;-64
2023/07/12 13:12:46;;;;;;;5.88;1.75;;;;;;;;;;5039977;28;20043;-65
2023/07/12 13:15:21;;;;;;;3.85;1.58;;;;;;;;;;5051352;28;20036;-65
2023/07/12 13:17:48;;;;;;;3.33;1.60;;;;;;;;;;5054038;28;20025;-64
2023/07/12 13:20:21;;;;;;;3.70;1.60;;;;;;;;;;5051534;28;20037;-64
2023/07/12 13:22:47;;;;;;;4.25;1.50;;;;;;;;;;5051579;28;20076;-65
2023/07/12 13:25:14;;;;;;;5.57;1.85;;;;;;;;;;5052610;28;20469;-64
2023/07/12 13:27:42;;;;;;;4.15;1.45;;;;;;;;;;5051834;28;20063;-65
2023/07/12 13:30:14;;;;;;;2.92;1.58;;;;;;;;;;5040051;28;20557;-64
2023/07/12 13:32:40;;;;;;;4.10;1.50;;;;;;;;;;5030346;28;20549;-65
2023/07/12 13:35:06;;;;;;;3.67;1.50;;;;;;;;;;5052510;28;20032;-66
2023/07/12 13:37:36;;;;;;;3.70;1.45;;;;;;;;;;5051356;28;20033;-65
2023/07/12 13:40:02;;;;;;;3.20;1.30;;;;;;;;;;5052003;28;20478;-64
2023/07/12 13:42:28;;;;;;;4.63;1.50;;;;;;;;;;5050205;28;20045;-65
2023/07/12 13:44:54;;;;;;;2.38;1.40;;;;;;;;;;5052701;28;20377;-64
2023/07/12 13:47:25;;;;;;;3.55;1.60;;;;;;;;;;5051089;28;20033;-64
2023/07/12 13:49:52;;;;;;;2.88;1.50;;;;;;;;;;5052379;28;20060;-64
2023/07/12 13:52:26;;;;;;;2.72;1.58;;;;;;;;;;5043212;28;20120;-65
2023/07/12 13:54:52;;;;;;;3.85;1.70;;;;;;;;;;5032430;28;20033;-65
2023/07/12 13:57:22;;;;;;;4.53;1.50;;;;;;;;;;5031829;28;20084;-65
2023/07/12 13:59:48;;;;;;;6.78;1.88;;;;;;;;;;5032234;28;20034;-65
2023/07/12 14:02:31;;;;;;;4.13;1.73;;;;;;;;;;5032260;28;20037;-65
2023/07/12 14:04:59;;;;;;;4.35;1.48;;;;;;;;;;5032509;28;20061;-64
2023/07/12 14:07:27;;;;;;;6.32;1.58;;;;;;;;;;5041166;28;20040;-65
2023/07/12 14:09:53;;;;;;;6.28;1.80;;;;;;;;;;5047898;28;20045;-64
2023/07/12 14:12:23;;;;;;;2.47;1.38;;;;;;;;;;5051685;28;20035;-65
2023/07/12 14:14:49;;;;;;;3.28;1.30;;;;;;;;;;5051982;28;20041;-64
2023/07/12 14:17:18;;;;;;;3.78;1.42;;;;;;;;;;5052112;28;20037;-64
2023/07/12 14:19:46;;;;;;;4.90;1.83;;;;;;;;;;5051396;28;20044;-64
2023/07/12 14:22:17;;;;;;;3.80;1.35;;;;;;;;;;5044559;28;20056;-64
2023/07/12 14:24:44;;;;;;;5.97;1.60;;;;;;;;;;5031460;28;20381;-65
2023/07/12 14:27:24;;;;;;;4.43;1.60;;;;;;;;;;5031991;28;20029;-65
2023/07/12 14:29:51;;;;;;;3.72;1.35;;;;;;;;;;5043026;28;20032;-64
2023/07/12 14:32:30;;;;;;;2.80;1.50;;;;;;;;;;5052102;28;20048;-65
2023/07/12 14:34:55;;;;;;;4.05;1.70;;;;;;;;;;5051874;28;20091;-64
2023/07/12 14:37:22;;;;;;;4.78;1.40;;;;;;;;;;5051694;28;20029;-64
2023/07/12 14:39:48;;;;;;;7.35;1.80;;;;;;;;;;5049861;28;20033;-65
2023/07/12 14:42:36;;;;;;;2.80;1.40;;;;;;;;;;5051261;28;20033;-64
2023/07/12 14:45:01;;;;;;;4.00;1.60;;;;;;;;;;5033672;28;20113;-65
2023/07/12 14:47:27;;;;;;;5.25;1.52;;;;;;;;;;5031086;28;20104;-64
2023/07/12 14:49:53;;;;;;;5.88;1.65;;;;;;;;;;5034984;28;20056;-64
2023/07/12 14:52:31;;;;;;;5.13;1.70;;;;;;;;;;5035251;28;20405;-64